Chesapeake — WDD3041 — position and weather

sailwx.info

Track history (hours):
 
Tides and Currents Weather Stations Pressure Air Temp Water Temp Dewpoint Dewpoint Depression Visibility Wind Speed Wind Dir Waves Ship Positions

Chesapeake

Owner: Vane Line Bunkering, Baltimore, MD. More information available from US FCC via Universal Licensing System and Coast Guard Vessel Documentation Center.

Last reported at 2015-Apr-24 23:32 UTC. Time now 2015-Apr-25 19:46 UTC.
Position N 40°54' W 073°55'.

Length 34 m; draft 16 m.

Type: Tug. MMSI: 367123040.

Date/timePositionNaut miles runAvg speedWind from/ knotsBaromVisibWave heightAir tempDewpointWater temp
2015-Apr-24 23:32N 40°54' W 073°55'7 7.6
2015-Apr-24 22:33N 40°47' W 073°59'8 8.0
2015-Apr-24 21:33N 40°40' W 074°03'4 3.8
2015-Apr-24 20:33N 40°41' W 074°08'2 1.5
2015-Apr-24 19:33N 40°42' W 074°07'0 0.4
2015-Apr-24 18:33N 40°43' W 074°07'0 0.0
2015-Apr-24 17:33N 40°43' W 074°07'1 1.4
2015-Apr-24 16:33N 40°41' W 074°08'3 2.8
2015-Apr-24 15:33N 40°39' W 074°05'1 1.1
2015-Apr-24 14:27N 40°39' W 074°06'5 5.5
2015-Apr-24 13:33N 40°40' W 074°00'0 0.0
2015-Apr-24 12:33N 40°40' W 074°00'3 3.0
2015-Apr-24 11:33N 40°40' W 074°04'0 0.0
2015-Apr-24 10:33N 40°40' W 074°04'1 1.3
2015-Apr-24 09:33N 40°39' W 074°05'1 1.3
2015-Apr-24 08:33N 40°40' W 074°05'4 3.6
2015-Apr-24 07:34N 40°39' W 074°09'2 2.3
2015-Apr-24 06:33N 40°41' W 074°08'2 2.4
2015-Apr-24 05:33N 40°39' W 074°07'0 0.0
2015-Apr-24 04:33N 40°39' W 074°07'0 0.0
2015-Apr-24 03:33N 40°39' W 074°07'2 2.5
2015-Apr-24 02:33N 40°39' W 074°10'7 7.0
2015-Apr-24 01:33N 40°33' W 074°15'4 3.3
2015-Apr-24 00:25N 40°36' W 074°12'2 1.7
2015-Apr-23 23:22N 40°38' W 074°12'6 7.5
2015-Apr-23 22:33N 40°39' W 074°05'1 1.3
2015-Apr-23 21:33N 40°39' W 074°03'0 0.0
2015-Apr-23 20:33N 40°39' W 074°03'0 0.0
2015-Apr-23 19:33N 40°39' W 074°03'0 0.0
2015-Apr-23 18:33N 40°39' W 074°03'0 0.0
2015-Apr-23 17:33N 40°39' W 074°03'0 0.0
2015-Apr-23 16:33N 40°39' W 074°03'0 0.0
2015-Apr-23 15:33N 40°39' W 074°03'0 0.0
2015-Apr-23 14:33N 40°39' W 074°03'0 0.0
2015-Apr-23 13:33N 40°39' W 074°03'0 0.1
2015-Apr-23 12:33N 40°39' W 074°03'0 0.0
2015-Apr-23 11:33N 40°39' W 074°03'0 0.0
2015-Apr-23 10:33N 40°39' W 074°03'0 0.0
2015-Apr-23 09:33N 40°39' W 074°03'0 0.0
2015-Apr-23 08:33N 40°39' W 074°03'0 0.0
2015-Apr-23 07:33N 40°39' W 074°03'0 0.0
2015-Apr-23 06:33N 40°39' W 074°03'0 0.0
2015-Apr-23 05:33N 40°39' W 074°03'0 0.1
2015-Apr-23 04:33N 40°39' W 074°03'0 0.0
2015-Apr-23 03:33N 40°39' W 074°03'0 0.0
2015-Apr-23 02:33N 40°39' W 074°03'0 0.0
2015-Apr-23 01:33N 40°39' W 074°03'0 0.1
2015-Apr-23 00:33N 40°39' W 074°03'0 0.0
2015-Apr-22 23:33N 40°39' W 074°03'1 1.4
2015-Apr-22 22:33N 40°40' W 074°02'3 3.5
2015-Apr-22 21:33N 40°39' W 074°07'5 4.7
2015-Apr-22 20:33N 40°40' W 074°00'0 0.0
2015-Apr-22 19:33N 40°40' W 074°00'0 0.0
2015-Apr-22 18:33N 40°40' W 074°00'0 0.0
2015-Apr-22 17:33N 40°40' W 074°00'0 0.0
2015-Apr-22 16:33N 40°40' W 074°00'0 0.0
2015-Apr-22 15:33N 40°40' W 074°00'0 0.0
2015-Apr-22 14:33N 40°40' W 074°00'0 0.2
2015-Apr-22 13:33N 40°40' W 074°01'0 0.2
2015-Apr-22 12:33N 40°40' W 074°00'0 0.0
2015-Apr-22 11:33N 40°40' W 074°00'0 0.0
2015-Apr-22 10:33N 40°40' W 074°00'0 0.0
2015-Apr-22 09:33N 40°40' W 074°00'0 0.0
2015-Apr-22 08:33N 40°40' W 074°00'0 0.0
2015-Apr-22 07:33N 40°40' W 074°00'0 0.0
2015-Apr-22 06:33N 40°40' W 074°00'0 0.0
2015-Apr-22 05:33N 40°40' W 074°00'0 0.1
2015-Apr-22 04:34N 40°40' W 074°01'5 4.6
2015-Apr-22 03:33N 40°39' W 074°07'1 0.8
2015-Apr-22 02:32N 40°39' W 074°05'5 4.9
2015-Apr-22 01:32N 40°38' W 074°12'0 0.0
2015-Apr-22 00:32N 40°38' W 074°12'0 0.0
2015-Apr-21 23:33N 40°38' W 074°12'0 0.0
2015-Apr-21 22:33N 40°38' W 074°12'0 0.0
2015-Apr-21 21:33N 40°38' W 074°12'62916291.5
2015-Apr-21 20:33S 64°13' W 074°12'62915869.2
2015-Apr-21 19:29N 40°38' W 074°12'4 4.5
2015-Apr-21 18:33N 40°39' W 074°06'5 4.9
2015-Apr-21 17:33N 40°40' W 074°00'0 0.0
2015-Apr-21 16:33N 40°40' W 074°00'0 0.0
2015-Apr-21 15:33N 40°40' W 074°00'0 0.0
2015-Apr-21 14:33N 40°40' W 074°00'0 0.0
2015-Apr-21 13:33N 40°40' W 074°00'0 0.0
2015-Apr-21 12:33N 40°40' W 074°00'0 0.0
2015-Apr-21 11:33N 40°40' W 074°00'0 0.0
2015-Apr-21 10:33N 40°40' W 074°00'0 0.0
2015-Apr-21 09:33N 40°40' W 074°00'0 0.0
2015-Apr-21 08:33N 40°40' W 074°00'0 0.0
2015-Apr-21 07:34N 40°40' W 074°00'0 0.0
2015-Apr-21 06:33N 40°40' W 074°00'0 0.0
2015-Apr-21 05:33N 40°40' W 074°00'0 0.0
2015-Apr-21 04:33N 40°40' W 074°00'0 0.0
2015-Apr-21 03:33N 40°40' W 074°00'0 0.0
2015-Apr-21 02:33N 40°40' W 074°00'0 0.0
2015-Apr-21 01:33N 40°40' W 074°00'0 0.0
2015-Apr-21 00:33N 40°40' W 074°00'0 0.0
2015-Apr-20 23:33N 40°40' W 074°00'0 0.0
2015-Apr-20 22:33N 40°40' W 074°00'0 0.0
2015-Apr-20 21:33N 40°40' W 074°00'0 0.0
2015-Apr-20 20:33N 40°40' W 074°00'0 0.0
2015-Apr-20 19:33N 40°40' W 074°00'0 0.0
2015-Apr-20 18:33N 40°40' W 074°00'0 0.0
2015-Apr-20 17:33N 40°40' W 074°00'0 0.0
2015-Apr-20 16:33N 40°40' W 074°00'4 3.7
2015-Apr-20 15:33N 40°39' W 074°05'0 0.3
2015-Apr-20 14:33N 40°39' W 074°05'2 1.7
2015-Apr-20 13:33N 40°39' W 074°03'0 0.0
2015-Apr-20 12:33N 40°39' W 074°03'0 0.1
2015-Apr-20 11:33N 40°39' W 074°03'0 0.2
2015-Apr-20 10:33N 40°39' W 074°03'0 0.1
2015-Apr-20 09:33N 40°39' W 074°03'1 1.1
2015-Apr-20 08:33N 40°39' W 074°04'2 2.2
2015-Apr-20 07:33N 40°40' W 074°02'0 0.0
2015-Apr-20 06:33N 40°40' W 074°02'0 0.0
2015-Apr-20 05:33N 40°40' W 074°02'0 0.0
2015-Apr-20 04:33N 40°40' W 074°02'0 0.2
2015-Apr-20 03:33N 40°40' W 074°02'0 0.1
2015-Apr-20 02:33N 40°40' W 074°02'0 0.1
2015-Apr-20 01:33N 40°40' W 074°02'0 0.0
2015-Apr-20 00:33N 40°40' W 074°02'0 0.1
2015-Apr-19 23:33N 40°40' W 074°02'0 0.2
2015-Apr-19 22:33N 40°40' W 074°02'0 0.0
2015-Apr-19 21:33N 40°40' W 074°02'0 0.1
2015-Apr-19 20:33N 40°40' W 074°02'0 0.0
2015-Apr-19 19:33N 40°40' W 074°02'0 0.1
2015-Apr-19 18:33N 40°40' W 074°02'7 6.7
2015-Apr-19 17:33N 40°39' W 074°11'2 1.9
2015-Apr-19 16:33N 40°37' W 074°12'2 0.2
2015-Apr-19 06:26N 40°35' W 074°12'0 0.0
2015-Apr-18 16:33N 40°35' W 074°12'2 2.2
2015-Apr-18 15:33N 40°38' W 074°12'4 4.0
2015-Apr-18 14:33N 40°39' W 074°07'5 5.1
2015-Apr-18 13:30N 40°40' W 074°00'0 0.0
2015-Apr-18 12:33N 40°40' W 074°00'0 0.0
2015-Apr-18 11:31N 40°40' W 074°00'0 0.0
2015-Apr-18 10:32N 40°40' W 074°00'0 0.0
2015-Apr-18 09:32N 40°40' W 074°00'0 0.0
2015-Apr-18 08:33N 40°40' W 074°00'0 0.0
2015-Apr-18 07:28N 40°40' W 074°00'0 0.0
2015-Apr-18 06:31N 40°40' W 074°00'0 0.0
2015-Apr-18 05:29N 40°40' W 074°00'0 0.0
2015-Apr-18 04:33N 40°40' W 074°00'0 0.0
2015-Apr-18 03:30N 40°40' W 074°00'0 0.0
2015-Apr-18 02:31N 40°40' W 074°00'0 0.1
2015-Apr-18 01:32N 40°40' W 074°00'0 0.1
2015-Apr-18 00:32N 40°40' W 074°00'0 0.0
2015-Apr-17 23:27N 40°40' W 074°00'0 0.0
2015-Apr-17 22:34N 40°40' W 074°00'0 0.0
2015-Apr-17 21:31N 40°40' W 074°00'7 6.9
2015-Apr-17 20:33N 40°38' W 074°09'2 2.3
2015-Apr-17 19:33N 40°38' W 074°12'5 5.3
2015-Apr-17 18:33N 40°39' W 074°05'2 2.0
2015-Apr-17 17:32N 40°40' W 074°02'0 0.0
2015-Apr-17 16:32N 40°40' W 074°02'0 0.0
2015-Apr-17 15:33N 40°40' W 074°02'0 0.1
2015-Apr-17 14:31N 40°40' W 074°02'0 0.1
2015-Apr-17 13:31N 40°40' W 074°02'0 0.0
2015-Apr-17 12:32N 40°40' W 074°02'0 0.0
2015-Apr-17 11:33N 40°40' W 074°02'0 0.1
2015-Apr-17 10:33N 40°40' W 074°02'0 0.0
2015-Apr-17 09:31N 40°40' W 074°02'0 0.2
2015-Apr-17 08:32N 40°40' W 074°02'0 0.0
2015-Apr-17 07:32N 40°40' W 074°02'0 0.0
2015-Apr-17 06:33N 40°40' W 074°02'0 0.0
2015-Apr-17 05:33N 40°40' W 074°02'0 0.0
2015-Apr-17 04:31N 40°40' W 074°02'0 0.0
2015-Apr-17 03:32N 40°40' W 074°02'0 0.0
2015-Apr-17 02:32N 40°40' W 074°02'0 0.2
2015-Apr-17 01:33N 40°40' W 074°02'0 0.0
2015-Apr-17 00:28N 40°40' W 074°02'0 0.0
2015-Apr-16 23:31N 40°40' W 074°02'0 0.0
2015-Apr-16 22:32N 40°40' W 074°02'0 0.0
2015-Apr-16 21:33N 40°40' W 074°02'0 0.2
2015-Apr-16 20:33N 40°40' W 074°02'0 0.1
2015-Apr-16 19:31N 40°40' W 074°02'0 0.0
2015-Apr-16 18:32N 40°40' W 074°02'0 0.0
2015-Apr-16 17:32N 40°40' W 074°02'0 0.0
2015-Apr-16 16:33N 40°40' W 074°02'0 0.0
2015-Apr-16 15:33N 40°40' W 074°02'0 0.0
2015-Apr-16 14:28N 40°40' W 074°02'0 0.1
2015-Apr-16 13:23N 40°40' W 074°02'0 0.2
2015-Apr-16 12:29N 40°40' W 074°02'0 0.0
2015-Apr-16 11:30N 40°40' W 074°02'0 0.0
2015-Apr-16 09:31N 40°40' W 074°02'0 0.2
2015-Apr-16 08:32N 40°40' W 074°02'0 0.2
2015-Apr-16 07:33N 40°40' W 074°02'0 0.0
2015-Apr-16 06:33N 40°40' W 074°02'0 0.0
2015-Apr-16 05:28N 40°40' W 074°02'0 0.0
2015-Apr-16 04:29N 40°40' W 074°02'0 0.0
2015-Apr-16 03:29N 40°40' W 074°02'0 0.0
2015-Apr-16 02:33N 40°40' W 074°02'0 0.0
2015-Apr-16 01:31N 40°40' W 074°02'0 0.1
2015-Apr-16 00:31N 40°40' W 074°02'0 0.1
2015-Apr-15 23:32N 40°40' W 074°02'0 0.0
2015-Apr-15 22:33N 40°40' W 074°02'0 0.0
2015-Apr-15 21:33N 40°40' W 074°02'0 0.1
2015-Apr-15 20:31N 40°40' W 074°02'0 0.2
2015-Apr-15 19:31N 40°40' W 074°02'0 0.0
2015-Apr-15 18:32N 40°40' W 074°02'0 0.0
2015-Apr-15 17:33N 40°40' W 074°02'0 0.0
2015-Apr-15 16:33N 40°40' W 074°02'0 0.0
2015-Apr-15 15:31N 40°40' W 074°02'0 0.0
2015-Apr-15 14:32N 40°40' W 074°02'0 0.0
2015-Apr-15 13:32N 40°40' W 074°02'0 0.0
2015-Apr-15 12:33N 40°40' W 074°02'0 0.2
2015-Apr-15 11:34N 40°40' W 074°02'0 0.1
2015-Apr-15 10:25N 40°40' W 074°02'0 0.0
2015-Apr-15 09:32N 40°40' W 074°02'0 0.0
2015-Apr-15 08:32N 40°40' W 074°02'0 0.2
2015-Apr-15 07:33N 40°40' W 074°02'0 0.1
2015-Apr-15 06:31N 40°40' W 074°02'0 0.0
2015-Apr-15 05:31N 40°40' W 074°02'0 0.3
2015-Apr-15 04:34N 40°40' W 074°03'1 0.8
2015-Apr-15 03:31N 40°39' W 074°03'2 1.6
2015-Apr-15 02:32N 40°37' W 074°04'0 0.0
2015-Apr-15 01:29N 40°37' W 074°04'0 0.0
2015-Apr-15 00:27N 40°37' W 074°04'0 0.3
2015-Apr-14 23:33N 40°38' W 074°04'  
Track history (hours):
 
Tides and Currents Weather Stations Pressure Air Temp Water Temp Dewpoint Dewpoint Depression Visibility Wind Speed Wind Dir Waves Ship Positions

Chesapeake

Owner: Vane Line Bunkering, Baltimore, MD. More information available from US FCC via Universal Licensing System and Coast Guard Vessel Documentation Center.

Last reported at 2015-Apr-24 23:32 UTC. Time now 2015-Apr-25 19:46 UTC.
Position N 40°54' W 073°55'.

Length 34 m; draft 16 m.

Type: Tug. MMSI: 367123040.

Date/timePositionNaut miles runAvg speedWind from/ knotsBaromVisibWave heightAir tempDewpointWater temp
2015-Apr-24 23:32N 40°54' W 073°55'7 7.6
2015-Apr-24 22:33N 40°47' W 073°59'8 8.0
2015-Apr-24 21:33N 40°40' W 074°03'4 3.8
2015-Apr-24 20:33N 40°41' W 074°08'2 1.5
2015-Apr-24 19:33N 40°42' W 074°07'0 0.4
2015-Apr-24 18:33N 40°43' W 074°07'0 0.0
2015-Apr-24 17:33N 40°43' W 074°07'1 1.4
2015-Apr-24 16:33N 40°41' W 074°08'3 2.8
2015-Apr-24 15:33N 40°39' W 074°05'1 1.1
2015-Apr-24 14:27N 40°39' W 074°06'5 5.5
2015-Apr-24 13:33N 40°40' W 074°00'0 0.0
2015-Apr-24 12:33N 40°40' W 074°00'3 3.0
2015-Apr-24 11:33N 40°40' W 074°04'0 0.0
2015-Apr-24 10:33N 40°40' W 074°04'1 1.3
2015-Apr-24 09:33N 40°39' W 074°05'1 1.3
2015-Apr-24 08:33N 40°40' W 074°05'4 3.6
2015-Apr-24 07:34N 40°39' W 074°09'2 2.3
2015-Apr-24 06:33N 40°41' W 074°08'2 2.4
2015-Apr-24 05:33N 40°39' W 074°07'0 0.0
2015-Apr-24 04:33N 40°39' W 074°07'0 0.0
2015-Apr-24 03:33N 40°39' W 074°07'2 2.5
2015-Apr-24 02:33N 40°39' W 074°10'7 7.0
2015-Apr-24 01:33N 40°33' W 074°15'4 3.3
2015-Apr-24 00:25N 40°36' W 074°12'2 1.7
2015-Apr-23 23:22N 40°38' W 074°12'6 7.5
2015-Apr-23 22:33N 40°39' W 074°05'1 1.3
2015-Apr-23 21:33N 40°39' W 074°03'0 0.0
2015-Apr-23 20:33N 40°39' W 074°03'0 0.0
2015-Apr-23 19:33N 40°39' W 074°03'0 0.0
2015-Apr-23 18:33N 40°39' W 074°03'0 0.0
2015-Apr-23 17:33N 40°39' W 074°03'0 0.0
2015-Apr-23 16:33N 40°39' W 074°03'0 0.0
2015-Apr-23 15:33N 40°39' W 074°03'0 0.0
2015-Apr-23 14:33N 40°39' W 074°03'0 0.0
2015-Apr-23 13:33N 40°39' W 074°03'0 0.1
2015-Apr-23 12:33N 40°39' W 074°03'0 0.0
2015-Apr-23 11:33N 40°39' W 074°03'0 0.0
2015-Apr-23 10:33N 40°39' W 074°03'0 0.0
2015-Apr-23 09:33N 40°39' W 074°03'0 0.0
2015-Apr-23 08:33N 40°39' W 074°03'0 0.0
2015-Apr-23 07:33N 40°39' W 074°03'0 0.0
2015-Apr-23 06:33N 40°39' W 074°03'0 0.0
2015-Apr-23 05:33N 40°39' W 074°03'0 0.1
2015-Apr-23 04:33N 40°39' W 074°03'0 0.0
2015-Apr-23 03:33N 40°39' W 074°03'0 0.0
2015-Apr-23 02:33N 40°39' W 074°03'0 0.0
2015-Apr-23 01:33N 40°39' W 074°03'0 0.1
2015-Apr-23 00:33N 40°39' W 074°03'0 0.0
2015-Apr-22 23:33N 40°39' W 074°03'1 1.4
2015-Apr-22 22:33N 40°40' W 074°02'3 3.5
2015-Apr-22 21:33N 40°39' W 074°07'5 4.7
2015-Apr-22 20:33N 40°40' W 074°00'0 0.0
2015-Apr-22 19:33N 40°40' W 074°00'0 0.0
2015-Apr-22 18:33N 40°40' W 074°00'0 0.0
2015-Apr-22 17:33N 40°40' W 074°00'0 0.0
2015-Apr-22 16:33N 40°40' W 074°00'0 0.0
2015-Apr-22 15:33N 40°40' W 074°00'0 0.0
2015-Apr-22 14:33N 40°40' W 074°00'0 0.2
2015-Apr-22 13:33N 40°40' W 074°01'0 0.2
2015-Apr-22 12:33N 40°40' W 074°00'0 0.0
2015-Apr-22 11:33N 40°40' W 074°00'0 0.0
2015-Apr-22 10:33N 40°40' W 074°00'0 0.0
2015-Apr-22 09:33N 40°40' W 074°00'0 0.0
2015-Apr-22 08:33N 40°40' W 074°00'0 0.0
2015-Apr-22 07:33N 40°40' W 074°00'0 0.0
2015-Apr-22 06:33N 40°40' W 074°00'0 0.0
2015-Apr-22 05:33N 40°40' W 074°00'0 0.1
2015-Apr-22 04:34N 40°40' W 074°01'5 4.6
2015-Apr-22 03:33N 40°39' W 074°07'1 0.8
2015-Apr-22 02:32N 40°39' W 074°05'5 4.9
2015-Apr-22 01:32N 40°38' W 074°12'0 0.0
2015-Apr-22 00:32N 40°38' W 074°12'0 0.0
2015-Apr-21 23:33N 40°38' W 074°12'0 0.0
2015-Apr-21 22:33N 40°38' W 074°12'0 0.0
2015-Apr-21 21:33N 40°38' W 074°12'62916291.5
2015-Apr-21 20:33S 64°13' W 074°12'62915869.2
2015-Apr-21 19:29N 40°38' W 074°12'4 4.5
2015-Apr-21 18:33N 40°39' W 074°06'5 4.9
2015-Apr-21 17:33N 40°40' W 074°00'0 0.0
2015-Apr-21 16:33N 40°40' W 074°00'0 0.0
2015-Apr-21 15:33N 40°40' W 074°00'0 0.0
2015-Apr-21 14:33N 40°40' W 074°00'0 0.0
2015-Apr-21 13:33N 40°40' W 074°00'0 0.0
2015-Apr-21 12:33N 40°40' W 074°00'0 0.0
2015-Apr-21 11:33N 40°40' W 074°00'0 0.0
2015-Apr-21 10:33N 40°40' W 074°00'0 0.0
2015-Apr-21 09:33N 40°40' W 074°00'0 0.0
2015-Apr-21 08:33N 40°40' W 074°00'0 0.0
2015-Apr-21 07:34N 40°40' W 074°00'0 0.0
2015-Apr-21 06:33N 40°40' W 074°00'0 0.0
2015-Apr-21 05:33N 40°40' W 074°00'0 0.0
2015-Apr-21 04:33N 40°40' W 074°00'0 0.0
2015-Apr-21 03:33N 40°40' W 074°00'0 0.0
2015-Apr-21 02:33N 40°40' W 074°00'0 0.0
2015-Apr-21 01:33N 40°40' W 074°00'0 0.0
2015-Apr-21 00:33N 40°40' W 074°00'0 0.0
2015-Apr-20 23:33N 40°40' W 074°00'0 0.0
2015-Apr-20 22:33N 40°40' W 074°00'0 0.0
2015-Apr-20 21:33N 40°40' W 074°00'0 0.0
2015-Apr-20 20:33N 40°40' W 074°00'0 0.0
2015-Apr-20 19:33N 40°40' W 074°00'0 0.0
2015-Apr-20 18:33N 40°40' W 074°00'0 0.0
2015-Apr-20 17:33N 40°40' W 074°00'0 0.0
2015-Apr-20 16:33N 40°40' W 074°00'4 3.7
2015-Apr-20 15:33N 40°39' W 074°05'0 0.3
2015-Apr-20 14:33N 40°39' W 074°05'2 1.7
2015-Apr-20 13:33N 40°39' W 074°03'0 0.0
2015-Apr-20 12:33N 40°39' W 074°03'0 0.1
2015-Apr-20 11:33N 40°39' W 074°03'0 0.2
2015-Apr-20 10:33N 40°39' W 074°03'0 0.1
2015-Apr-20 09:33N 40°39' W 074°03'1 1.1
2015-Apr-20 08:33N 40°39' W 074°04'2 2.2
2015-Apr-20 07:33N 40°40' W 074°02'0 0.0
2015-Apr-20 06:33N 40°40' W 074°02'0 0.0
2015-Apr-20 05:33N 40°40' W 074°02'0 0.0
2015-Apr-20 04:33N 40°40' W 074°02'0 0.2
2015-Apr-20 03:33N 40°40' W 074°02'0 0.1
2015-Apr-20 02:33N 40°40' W 074°02'0 0.1
2015-Apr-20 01:33N 40°40' W 074°02'0 0.0
2015-Apr-20 00:33N 40°40' W 074°02'0 0.1
2015-Apr-19 23:33N 40°40' W 074°02'0 0.2
2015-Apr-19 22:33N 40°40' W 074°02'0 0.0
2015-Apr-19 21:33N 40°40' W 074°02'0 0.1
2015-Apr-19 20:33N 40°40' W 074°02'0 0.0
2015-Apr-19 19:33N 40°40' W 074°02'0 0.1
2015-Apr-19 18:33N 40°40' W 074°02'7 6.7
2015-Apr-19 17:33N 40°39' W 074°11'2 1.9
2015-Apr-19 16:33N 40°37' W 074°12'2 0.2
2015-Apr-19 06:26N 40°35' W 074°12'0 0.0
2015-Apr-18 16:33N 40°35' W 074°12'2 2.2
2015-Apr-18 15:33N 40°38' W 074°12'4 4.0
2015-Apr-18 14:33N 40°39' W 074°07'5 5.1
2015-Apr-18 13:30N 40°40' W 074°00'0 0.0
2015-Apr-18 12:33N 40°40' W 074°00'0 0.0
2015-Apr-18 11:31N 40°40' W 074°00'0 0.0
2015-Apr-18 10:32N 40°40' W 074°00'0 0.0
2015-Apr-18 09:32N 40°40' W 074°00'0 0.0
2015-Apr-18 08:33N 40°40' W 074°00'0 0.0
2015-Apr-18 07:28N 40°40' W 074°00'0 0.0
2015-Apr-18 06:31N 40°40' W 074°00'0 0.0
2015-Apr-18 05:29N 40°40' W 074°00'0 0.0
2015-Apr-18 04:33N 40°40' W 074°00'0 0.0
2015-Apr-18 03:30N 40°40' W 074°00'0 0.0
2015-Apr-18 02:31N 40°40' W 074°00'0 0.1
2015-Apr-18 01:32N 40°40' W 074°00'0 0.1
2015-Apr-18 00:32N 40°40' W 074°00'0 0.0
2015-Apr-17 23:27N 40°40' W 074°00'0 0.0
2015-Apr-17 22:34N 40°40' W 074°00'0 0.0
2015-Apr-17 21:31N 40°40' W 074°00'7 6.9
2015-Apr-17 20:33N 40°38' W 074°09'2 2.3
2015-Apr-17 19:33N 40°38' W 074°12'5 5.3
2015-Apr-17 18:33N 40°39' W 074°05'2 2.0
2015-Apr-17 17:32N 40°40' W 074°02'0 0.0
2015-Apr-17 16:32N 40°40' W 074°02'0 0.0
2015-Apr-17 15:33N 40°40' W 074°02'0 0.1
2015-Apr-17 14:31N 40°40' W 074°02'0 0.1
2015-Apr-17 13:31N 40°40' W 074°02'0 0.0
2015-Apr-17 12:32N 40°40' W 074°02'0 0.0
2015-Apr-17 11:33N 40°40' W 074°02'0 0.1
2015-Apr-17 10:33N 40°40' W 074°02'0 0.0
2015-Apr-17 09:31N 40°40' W 074°02'0 0.2
2015-Apr-17 08:32N 40°40' W 074°02'0 0.0
2015-Apr-17 07:32N 40°40' W 074°02'0 0.0
2015-Apr-17 06:33N 40°40' W 074°02'0 0.0
2015-Apr-17 05:33N 40°40' W 074°02'0 0.0
2015-Apr-17 04:31N 40°40' W 074°02'0 0.0
2015-Apr-17 03:32N 40°40' W 074°02'0 0.0
2015-Apr-17 02:32N 40°40' W 074°02'0 0.2
2015-Apr-17 01:33N 40°40' W 074°02'0 0.0
2015-Apr-17 00:28N 40°40' W 074°02'0 0.0
2015-Apr-16 23:31N 40°40' W 074°02'0 0.0
2015-Apr-16 22:32N 40°40' W 074°02'0 0.0
2015-Apr-16 21:33N 40°40' W 074°02'0 0.2
2015-Apr-16 20:33N 40°40' W 074°02'0 0.1
2015-Apr-16 19:31N 40°40' W 074°02'0 0.0
2015-Apr-16 18:32N 40°40' W 074°02'0 0.0
2015-Apr-16 17:32N 40°40' W 074°02'0 0.0
2015-Apr-16 16:33N 40°40' W 074°02'0 0.0
2015-Apr-16 15:33N 40°40' W 074°02'0 0.0
2015-Apr-16 14:28N 40°40' W 074°02'0 0.1
2015-Apr-16 13:23N 40°40' W 074°02'0 0.2
2015-Apr-16 12:29N 40°40' W 074°02'0 0.0
2015-Apr-16 11:30N 40°40' W 074°02'0 0.0
2015-Apr-16 09:31N 40°40' W 074°02'0 0.2
2015-Apr-16 08:32N 40°40' W 074°02'0 0.2
2015-Apr-16 07:33N 40°40' W 074°02'0 0.0
2015-Apr-16 06:33N 40°40' W 074°02'0 0.0
2015-Apr-16 05:28N 40°40' W 074°02'0 0.0
2015-Apr-16 04:29N 40°40' W 074°02'0 0.0
2015-Apr-16 03:29N 40°40' W 074°02'0 0.0
2015-Apr-16 02:33N 40°40' W 074°02'0 0.0
2015-Apr-16 01:31N 40°40' W 074°02'0 0.1
2015-Apr-16 00:31N 40°40' W 074°02'0 0.1
2015-Apr-15 23:32N 40°40' W 074°02'0 0.0
2015-Apr-15 22:33N 40°40' W 074°02'0 0.0
2015-Apr-15 21:33N 40°40' W 074°02'0 0.1
2015-Apr-15 20:31N 40°40' W 074°02'0 0.2
2015-Apr-15 19:31N 40°40' W 074°02'0 0.0
2015-Apr-15 18:32N 40°40' W 074°02'0 0.0
2015-Apr-15 17:33N 40°40' W 074°02'0 0.0
2015-Apr-15 16:33N 40°40' W 074°02'0 0.0
2015-Apr-15 15:31N 40°40' W 074°02'0 0.0
2015-Apr-15 14:32N 40°40' W 074°02'0 0.0
2015-Apr-15 13:32N 40°40' W 074°02'0 0.0
2015-Apr-15 12:33N 40°40' W 074°02'0 0.2
2015-Apr-15 11:34N 40°40' W 074°02'0 0.1
2015-Apr-15 10:25N 40°40' W 074°02'0 0.0
2015-Apr-15 09:32N 40°40' W 074°02'0 0.0
2015-Apr-15 08:32N 40°40' W 074°02'0 0.2
2015-Apr-15 07:33N 40°40' W 074°02'0 0.1
2015-Apr-15 06:31N 40°40' W 074°02'0 0.0
2015-Apr-15 05:31N 40°40' W 074°02'0 0.3
2015-Apr-15 04:34N 40°40' W 074°03'1 0.8
2015-Apr-15 03:31N 40°39' W 074°03'2 1.6
2015-Apr-15 02:32N 40°37' W 074°04'0 0.0
2015-Apr-15 01:29N 40°37' W 074°04'0 0.0
2015-Apr-15 00:27N 40°37' W 074°04'0 0.3
2015-Apr-14 23:33N 40°38' W 074°04'  

Dump ship's entire track history